Time;durP1;ratioP1;P1;durP2;ratioP2;P2;SDS_P1;SDS_P2;PMS_P1;PMS_P2;Temp;Humidity;BMP_temperature;BMP_pressure;BME280_temperature;BME280_humidity;BME280_pressure;Samples;Min_cycle;Max_cycle;Signal;HPM_P1;HPM_P2
2023/05/17 00:01:47;;;;;;;;;;;;;;;7.91;75.53;98678.25;7381743;19;19939;-80
2023/05/17 00:04:13;;;;;;;;;;;;;;;7.96;75.88;98677.03;7378243;19;19979;-81
2023/05/17 00:06:40;;;;;;;;;;;;;;;7.98;76.65;98678.56;7370541;19;19926;-82
2023/05/17 00:09:07;;;;;;;;;;;;;;;7.99;76.12;98676.75;7375380;19;20809;-80
2023/05/17 00:11:34;;;;;;;;;;;;;;;7.97;75.21;98691.84;7369241;19;20539;-78
2023/05/17 00:14:01;;;;;;;;;;;;;;;7.90;75.48;98681.03;7378278;19;19923;-83
2023/05/17 00:16:28;;;;;;;;;;;;;;;7.79;75.17;98692.44;7378527;19;19974;-82
2023/05/17 00:18:54;;;;;;;;;;;;;;;7.73;75.44;98694.78;7376303;19;19911;-79
2023/05/17 00:21:21;;;;;;;;;;;;;;;7.67;74.99;98698.78;7376685;19;19911;-82
2023/05/17 00:23:48;;;;;;;;;;;;;;;7.56;75.34;98704.09;7379838;19;19918;-81
2023/05/17 00:26:15;;;;;;;;;;;;;;;7.55;75.27;98708.50;7382768;19;19918;-80
2023/05/17 00:28:42;;;;;;;;;;;;;;;7.57;75.62;98708.41;7381849;19;19915;-81
2023/05/17 00:31:08;;;;;;;;;;;;;;;7.65;76.07;98709.41;7377427;19;19914;-79
2023/05/17 00:33:35;;;;;;;;;;;;;;;7.72;76.38;98707.13;7381178;19;19919;-82
2023/05/17 00:36:02;;;;;;;;;;;;;;;7.79;76.62;98712.69;7378798;19;20341;-88
2023/05/17 00:38:31;;;;;;;;;;;;;;;7.82;76.61;98712.41;7382248;19;19954;-81
2023/05/17 00:40:59;;;;;;;;;;;;;;;7.70;75.45;98707.22;7384687;19;19923;-85
2023/05/17 00:43:26;;;;;;;;;;;;;;;7.66;76.29;98710.25;7383670;19;19914;-80
2023/05/17 00:45:52;;;;;;;;;;;;;;;7.68;77.20;98713.59;7376345;19;19937;-82
2023/05/17 00:48:24;;;;;;;;;;;;;;;7.68;77.28;98713.59;7379119;19;20004;-82
2023/05/17 00:50:52;;;;;;;;;;;;;;;7.68;77.12;98710.97;7375218;19;19922;-80
2023/05/17 00:53:18;;;;;;;;;;;;;;;7.63;76.66;98710.50;7377618;19;19923;-81
2023/05/17 00:55:45;;;;;;;;;;;;;;;7.67;76.55;98718.03;7376632;19;20292;-81
2023/05/17 00:58:12;;;;;;;;;;;;;;;7.68;76.68;98717.06;7380809;19;19998;-82
2023/05/17 01:00:39;;;;;;;;;;;;;;;7.76;77.02;98719.03;7374499;19;19918;-78
2023/05/17 01:03:06;;;;;;;;;;;;;;;7.77;76.22;98722.53;7381383;19;19930;-81
2023/05/17 01:05:33;;;;;;;;;;;;;;;7.79;76.74;98718.78;7381737;19;20238;-82
2023/05/17 01:08:01;;;;;;;;;;;;;;;7.81;76.86;98721.31;7383407;19;20399;-79
2023/05/17 01:10:54;;;;;;;;;;;;;;;7.79;77.13;98724.06;7378629;19;20356;-84
2023/05/17 01:13:23;;;;;;;;;;;;;;;7.79;77.62;98721.41;7379019;19;19922;-81
2023/05/17 01:16:01;;;;;;;;;;;;;;;7.82;77.69;98718.56;7378379;19;19919;-84
2023/05/17 01:18:38;;;;;;;;;;;;;;;7.80;77.02;98725.75;7379531;19;20344;-82
2023/05/17 01:21:25;;;;;;;;;;;;;;;7.84;76.94;98728.94;7377292;19;19943;-86
2023/05/17 01:24:22;;;;;;;;;;;;;;;7.85;76.19;98730.63;7377023;19;20607;-80
2023/05/17 01:26:49;;;;;;;;;;;;;;;7.82;76.00;98729.09;7374925;19;20348;-84
2023/05/17 01:29:15;;;;;;;;;;;;;;;7.82;75.00;98734.34;7376927;19;19922;-80
2023/05/17 01:31:42;;;;;;;;;;;;;;;7.85;75.22;98734.09;7377533;19;19923;-82
2023/05/17 01:34:09;;;;;;;;;;;;;;;7.78;74.53;98732.94;7375823;19;20392;-86
2023/05/17 01:36:36;;;;;;;;;;;;;;;7.80;75.87;98736.28;7375533;19;19922;-85
2023/05/17 01:39:02;;;;;;;;;;;;;;;7.72;74.79;98737.88;7376784;19;19936;-81
2023/05/17 01:41:31;;;;;;;;;;;;;;;7.69;74.80;98729.28;7375803;19;19925;-84
2023/05/17 01:43:59;;;;;;;;;;;;;;;7.68;74.68;98735.50;7381745;19;20010;-83
2023/05/17 01:46:32;;;;;;;;;;;;;;;7.74;75.26;98742.06;7380380;19;20801;-81
2023/05/17 01:49:04;;;;;;;;;;;;;;;7.77;74.87;98736.53;7380938;19;19919;-81
2023/05/17 01:51:32;;;;;;;;;;;;;;;7.75;75.67;98735.81;7379681;19;20669;-83
2023/05/17 01:54:08;;;;;;;;;;;;;;;7.79;75.88;98739.03;7382445;19;19928;-84
2023/05/17 01:56:34;;;;;;;;;;;;;;;7.76;74.25;98737.47;7386792;19;19927;-84
2023/05/17 01:59:02;;;;;;;;;;;;;;;7.75;74.38;98740.25;7385812;19;19944;-78
2023/05/17 02:01:29;;;;;;;;;;;;;;;7.75;74.40;98742.91;7385271;19;20443;-82
2023/05/17 02:03:56;;;;;;;;;;;;;;;7.73;74.48;98745.66;7388019;19;21589;-80
2023/05/17 02:06:23;;;;;;;;;;;;;;;7.69;74.31;98742.44;7386868;19;19947;-81
2023/05/17 02:08:50;;;;;;;;;;;;;;;7.72;74.81;98748.44;7371840;19;19925;-80
2023/05/17 02:11:16;;;;;;;;;;;;;;;7.73;74.38;98744.81;7374556;19;20825;-78
2023/05/17 02:13:43;;;;;;;;;;;;;;;7.74;74.22;98752.59;7381584;19;19951;-81
2023/05/17 02:16:10;;;;;;;;;;;;;;;7.75;74.07;98750.81;7379346;19;19922;-80
2023/05/17 02:18:39;;;;;;;;;;;;;;;7.70;74.04;98756.44;7373541;19;20016;-79
2023/05/17 02:21:06;;;;;;;;;;;;;;;7.70;73.83;98753.81;7365459;19;20429;-85
2023/05/17 02:23:35;;;;;;;;;;;;;;;7.64;73.95;98756.97;7381427;19;20340;-80
2023/05/17 02:26:02;;;;;;;;;;;;;;;7.59;74.37;98759.97;7381333;19;19943;-82
2023/05/17 02:28:28;;;;;;;;;;;;;;;7.58;75.13;98768.84;7374874;19;19919;-81
2023/05/17 02:30:55;;;;;;;;;;;;;;;7.56;75.13;98759.41;7373481;19;19919;-79
2023/05/17 02:33:22;;;;;;;;;;;;;;;7.57;75.49;98761.06;7375107;19;19918;-78
2023/05/17 02:35:49;;;;;;;;;;;;;;;7.61;75.64;98758.06;7380502;19;20399;-79
2023/05/17 02:38:18;;;;;;;;;;;;;;;7.56;74.39;98762.03;7375339;19;20340;-78
2023/05/17 02:40:44;;;;;;;;;;;;;;;7.56;75.26;98764.66;7377183;19;19929;-79
2023/05/17 02:43:11;;;;;;;;;;;;;;;7.47;74.70;98771.50;7373820;19;20013;-83
2023/05/17 02:45:38;;;;;;;;;;;;;;;7.40;73.87;98775.63;7378954;19;20001;-80
2023/05/17 02:48:04;;;;;;;;;;;;;;;7.39;74.70;98771.31;7379570;19;19962;-78
2023/05/17 02:50:32;;;;;;;;;;;;;;;7.42;74.39;98768.41;7374953;19;19922;-84
2023/05/17 02:52:58;;;;;;;;;;;;;;;7.42;74.96;98763.16;7376653;19;19932;-79
2023/05/17 02:55:25;;;;;;;;;;;;;;;7.46;75.69;98768.03;7370216;19;20025;-80
2023/05/17 02:57:53;;;;;;;;;;;;;;;7.37;74.66;98776.72;7378345;19;19926;-78
2023/05/17 03:00:20;;;;;;;;;;;;;;;7.34;74.83;98771.66;7372370;19;19926;-79
2023/05/17 03:02:47;;;;;;;;;;;;;;;7.35;75.52;98773.38;7379177;19;19926;-83
2023/05/17 03:05:14;;;;;;;;;;;;;;;7.36;75.28;98769.75;7366458;19;19933;-83
2023/05/17 03:07:46;;;;;;;;;;;;;;;7.39;76.04;98774.75;7377602;19;19929;-83
2023/05/17 03:10:13;;;;;;;;;;;;;;;7.26;75.78;98768.84;7368516;19;19923;-81
2023/05/17 03:12:42;;;;;;;;;;;;;;;7.18;74.86;98769.44;7376181;19;19926;-82
2023/05/17 03:15:09;;;;;;;;;;;;;;;7.15;75.30;98772.34;7374763;19;20322;-82
2023/05/17 03:17:36;;;;;;;;;;;;;;;7.13;75.18;98778.69;7378181;19;19935;-82
2023/05/17 03:20:06;;;;;;;;;;;;;;;7.10;75.68;98774.50;7375306;19;19929;-81
2023/05/17 03:22:34;;;;;;;;;;;;;;;7.06;74.95;98772.25;7375369;19;19918;-82
2023/05/17 03:25:01;;;;;;;;;;;;;;;7.10;75.93;98778.94;7377904;19;19949;-82
2023/05/17 03:27:29;;;;;;;;;;;;;;;7.10;76.59;98784.19;7372142;19;19923;-81
2023/05/17 03:29:57;;;;;;;;;;;;;;;7.06;76.21;98794.16;7374051;19;19950;-80
2023/05/17 03:32:24;;;;;;;;;;;;;;;6.98;75.59;98791.28;7374389;19;20471;-80
2023/05/17 03:34:51;;;;;;;;;;;;;;;6.99;77.19;98799.03;7378783;19;20971;-80
2023/05/17 03:37:19;;;;;;;;;;;;;;;6.98;76.35;98793.94;7371118;19;19940;-81
2023/05/17 03:39:46;;;;;;;;;;;;;;;6.95;76.20;98795.00;7373638;19;19931;-84
2023/05/17 03:42:13;;;;;;;;;;;;;;;6.97;76.64;98797.50;7376461;19;20692;-85
2023/05/17 03:44:40;;;;;;;;;;;;;;;6.99;76.83;98804.31;7378635;19;19940;-84
2023/05/17 03:47:07;;;;;;;;;;;;;;;7.03;77.10;98805.75;7378650;19;19966;-81
2023/05/17 03:49:34;;;;;;;;;;;;;;;7.32;75.32;98799.94;7378507;19;19926;-82
2023/05/17 03:52:02;;;;;;;;;;;;;;;7.33;74.80;98800.78;7375902;19;20820;-81
2023/05/17 03:54:28;;;;;;;;;;;;;;;7.34;74.83;98798.00;7376807;19;20317;-83
2023/05/17 03:56:55;;;;;;;;;;;;;;;7.31;74.88;98803.50;7380398;19;19918;-78
2023/05/17 03:59:23;;;;;;;;;;;;;;;7.34;75.68;98808.53;7380021;19;19922;-80
2023/05/17 04:01:49;;;;;;;;;;;;;;;7.31;75.74;98818.47;7384983;19;19943;-81
2023/05/17 04:04:16;;;;;;;;;;;;;;;7.30;75.77;98820.28;7383244;19;19962;-83
2023/05/17 04:06:44;;;;;;;;;;;;;;;7.35;76.72;98809.38;7387186;19;19918;-82
2023/05/17 04:09:12;;;;;;;;;;;;;;;7.34;75.99;98816.41;7380445;19;19922;-83
2023/05/17 04:11:39;;;;;;;;;;;;;;;7.39;75.95;98824.78;7386433;19;19933;-80
2023/05/17 04:14:06;;;;;;;;;;;;;;;7.31;75.28;98829.84;7385934;19;19918;-81
2023/05/17 04:16:33;;;;;;;;;;;;;;;7.30;75.76;98832.59;7380458;19;19915;-80
2023/05/17 04:19:00;;;;;;;;;;;;;;;7.35;76.18;98835.69;7385474;19;20567;-79
2023/05/17 04:21:28;;;;;;;;;;;;;;;7.29;76.09;98831.75;7378567;19;19948;-82
2023/05/17 04:23:55;;;;;;;;;;;;;;;7.37;76.34;98833.75;7381590;19;19914;-84
2023/05/17 04:26:22;;;;;;;;;;;;;;;7.38;75.65;98841.53;7379618;19;19978;-81
2023/05/17 04:28:49;;;;;;;;;;;;;;;7.43;75.96;98849.91;7385652;19;19927;-81
2023/05/17 04:31:16;;;;;;;;;;;;;;;7.51;75.55;98838.75;7380760;19;19915;-81
2023/05/17 04:33:44;;;;;;;;;;;;;;;7.52;75.63;98845.69;7384163;19;20019;-80
2023/05/17 04:36:11;;;;;;;;;;;;;;;7.56;75.75;98851.56;7378612;19;19930;-86
2023/05/17 04:38:39;;;;;;;;;;;;;;;7.61;76.22;98849.34;7379942;19;19914;-83
2023/05/17 04:41:09;;;;;;;;;;;;;;;7.68;76.74;98853.16;7382277;19;19927;-83
2023/05/17 04:43:37;;;;;;;;;;;;;;;7.69;76.84;98855.69;7382444;19;19941;-80
2023/05/17 04:46:08;;;;;;;;;;;;;;;7.44;78.77;98853.38;7383859;19;19947;-80
2023/05/17 04:48:37;;;;;;;;;;;;;;;7.32;78.29;98854.34;7381050;19;20278;-79
2023/05/17 04:51:05;;;;;;;;;;;;;;;7.35;78.91;98862.84;7381175;19;19925;-84
2023/05/17 04:53:32;;;;;;;;;;;;;;;7.41;79.17;98866.78;7378332;19;19923;-80
2023/05/17 04:56:05;;;;;;;;;;;;;;;7.43;79.18;98870.97;7381558;19;19919;-81
2023/05/17 04:58:32;;;;;;;;;;;;;;;7.48;79.21;98870.59;7375823;19;19929;-80
2023/05/17 05:01:00;;;;;;;;;;;;;;;7.47;77.90;98874.19;7380458;19;19961;-80
2023/05/17 05:03:27;;;;;;;;;;;;;;;7.50;77.33;98873.09;7381362;19;19966;-79
2023/05/17 05:05:54;;;;;;;;;;;;;;;7.55;76.91;98876.19;7386476;19;19919;-80
2023/05/17 05:08:21;;;;;;;;;;;;;;;7.55;77.23;98892.81;7378563;19;19911;-81
2023/05/17 05:10:50;;;;;;;;;;;;;;;7.53;77.01;98891.28;7379042;19;19947;-82
2023/05/17 05:13:18;;;;;;;;;;;;;;;7.54;77.06;98887.69;7376608;19;20426;-81
2023/05/17 05:15:45;;;;;;;;;;;;;;;7.60;76.54;98893.28;7380057;19;19919;-82
2023/05/17 05:18:12;;;;;;;;;;;;;;;7.61;76.82;98894.97;7379816;19;19926;-82
2023/05/17 05:20:39;;;;;;;;;;;;;;;7.62;77.13;98890.53;7374101;19;19911;-81
2023/05/17 05:23:06;;;;;;;;;;;;;;;7.56;77.29;98896.31;7375772;19;19952;-82
2023/05/17 05:25:36;;;;;;;;;;;;;;;7.52;76.10;98897.50;7375638;19;19918;-79
2023/05/17 05:28:03;;;;;;;;;;;;;;;7.41;76.97;98896.56;7376500;19;20395;-82
2023/05/17 05:30:31;;;;;;;;;;;;;;;7.59;76.98;98902.16;7365034;19;20400;-82
2023/05/17 05:32:58;;;;;;;;;;;;;;;7.46;77.23;98904.94;7368149;19;19929;-82
2023/05/17 05:35:28;;;;;;;;;;;;;;;7.52;77.27;98908.03;7373120;19;19915;-81
2023/05/17 05:37:56;;;;;;;;;;;;;;;7.56;76.71;98912.13;7370208;19;19929;-84
2023/05/17 05:40:23;;;;;;;;;;;;;;;7.67;77.41;98909.44;7366525;19;20329;-80
2023/05/17 05:42:51;;;;;;;;;;;;;;;7.65;76.55;98912.19;7379183;19;19918;-79
2023/05/17 05:45:20;;;;;;;;;;;;;;;7.61;75.99;98915.19;7380391;19;19923;-78
2023/05/17 05:47:48;;;;;;;;;;;;;;;7.67;77.11;98917.34;7386305;19;19923;-84
2023/05/17 05:50:15;;;;;;;;;;;;;;;7.75;77.68;98919.34;7381089;19;20607;-84
2023/05/17 05:52:44;;;;;;;;;;;;;;;7.60;75.75;98916.16;7377562;19;19954;-80
2023/05/17 05:55:11;;;;;;;;;;;;;;;7.59;75.79;98917.13;7380748;19;20383;-80
2023/05/17 05:57:38;;;;;;;;;;;;;;;7.72;76.43;98927.50;7375519;19;20594;-81
2023/05/17 06:00:05;;;;;;;;;;;;;;;7.76;76.33;98931.56;7373282;19;19919;-81
2023/05/17 06:02:38;;;;;;;;;;;;;;;7.77;76.06;98930.63;7378976;19;20505;-80
2023/05/17 06:05:04;;;;;;;;;;;;;;;7.78;75.63;98932.28;7382513;19;19926;-81
2023/05/17 06:07:31;;;;;;;;;;;;;;;7.78;75.37;98935.75;7378566;19;19919;-80
2023/05/17 06:09:58;;;;;;;;;;;;;;;7.88;76.37;98944.56;7378335;19;19925;-79
2023/05/17 06:12:24;;;;;;;;;;;;;;;7.91;76.72;98949.59;7376089;19;19933;-87
2023/05/17 06:14:51;;;;;;;;;;;;;;;7.92;76.03;98942.50;7381396;19;20279;-80
2023/05/17 06:17:20;;;;;;;;;;;;;;;7.75;75.37;98949.16;7377946;19;20002;-80
2023/05/17 06:19:48;;;;;;;;;;;;;;;7.88;75.66;98960.38;7375586;19;19922;-78
2023/05/17 06:22:15;;;;;;;;;;;;;;;7.86;75.75;98957.03;7379835;19;19914;-79
2023/05/17 06:24:42;;;;;;;;;;;;;;;7.88;75.75;98954.28;7377041;19;19930;-79
2023/05/17 06:27:08;;;;;;;;;;;;;;;7.90;76.14;98947.94;7379884;19;19939;-83
2023/05/17 06:29:35;;;;;;;;;;;;;;;7.95;75.93;98952.81;7373961;19;19963;-79
2023/05/17 06:32:02;;;;;;;;;;;;;;;7.97;76.57;98953.50;7377160;19;20253;-78
2023/05/17 06:34:29;;;;;;;;;;;;;;;8.00;75.60;98952.44;7379213;19;19919;-82
2023/05/17 06:36:57;;;;;;;;;;;;;;;8.01;75.60;98960.22;7379184;19;19946;-82
2023/05/17 06:39:23;;;;;;;;;;;;;;;8.24;75.11;98953.06;7372287;19;19927;-81
2023/05/17 06:41:51;;;;;;;;;;;;;;;8.45;73.91;98958.41;7377630;19;19943;-81
2023/05/17 06:44:17;;;;;;;;;;;;;;;8.50;73.90;98956.19;7379430;19;19919;-81
2023/05/17 06:46:46;;;;;;;;;;;;;;;8.61;73.43;98963.22;7378948;19;20287;-80
2023/05/17 06:49:13;;;;;;;;;;;;;;;8.57;73.02;98965.25;7377781;19;19923;-80
2023/05/17 06:51:40;;;;;;;;;;;;;;;8.63;73.04;98963.91;7375310;19;19933;-77
2023/05/17 06:54:07;;;;;;;;;;;;;;;8.70;72.69;98958.97;7380280;19;19918;-78
2023/05/17 06:56:33;;;;;;;;;;;;;;;8.86;73.36;98958.50;7377228;19;19933;-81
2023/05/17 06:59:01;;;;;;;;;;;;;;;8.86;72.81;98955.88;7376947;19;19923;-80
2023/05/17 07:01:27;;;;;;;;;;;;;;;8.89;72.91;98967.00;7372134;19;20389;-83
2023/05/17 07:03:54;;;;;;;;;;;;;;;8.95;72.02;98966.50;7376730;19;19933;-79
2023/05/17 07:06:21;;;;;;;;;;;;;;;8.98;72.32;98963.56;7377850;19;19915;-81
2023/05/17 07:08:48;;;;;;;;;;;;;;;9.16;72.36;98963.81;7373786;19;20251;-84
2023/05/17 07:11:14;;;;;;;;;;;;;;;9.17;72.08;98962.00;7386620;19;19915;-80
2023/05/17 07:13:41;;;;;;;;;;;;;;;9.19;72.43;98963.53;7399709;19;19914;-82
2023/05/17 07:16:08;;;;;;;;;;;;;;;9.35;72.09;98968.31;7375874;19;19914;-80
2023/05/17 07:18:35;;;;;;;;;;;;;;;9.31;71.89;98966.06;7371220;19;20274;-82
2023/05/17 07:21:02;;;;;;;;;;;;;;;9.40;71.68;98959.97;7377380;19;19930;-80
2023/05/17 07:23:28;;;;;;;;;;;;;;;9.48;71.52;98962.81;7375428;19;19966;-81
2023/05/17 07:25:55;;;;;;;;;;;;;;;9.61;71.72;98967.81;7374401;19;19986;-80
2023/05/17 07:28:22;;;;;;;;;;;;;;;9.66;71.69;98966.47;7373385;19;19939;-79
2023/05/17 07:30:49;;;;;;;;;;;;;;;9.72;71.64;98959.81;7370401;19;19922;-79
2023/05/17 07:33:15;;;;;;;;;;;;;;;9.80;71.66;98961.78;7373896;19;20443;-79
2023/05/17 07:35:42;;;;;;;;;;;;;;;9.92;71.51;98965.13;7373712;19;19923;-80
2023/05/17 07:38:09;;;;;;;;;;;;;;;10.04;71.55;98959.56;7375503;19;20093;-79
2023/05/17 07:40:37;;;;;;;;;;;;;;;10.11;72.04;98957.22;7374185;19;19923;-79
2023/05/17 07:43:04;;;;;;;;;;;;;;;10.23;71.82;98960.56;7378515;19;20591;-80
2023/05/17 07:45:31;;;;;;;;;;;;;;;10.23;72.65;98968.50;7369284;19;20353;-84
2023/05/17 07:47:58;;;;;;;;;;;;;;;10.32;70.06;98957.97;7375873;19;19944;-80
2023/05/17 07:50:25;;;;;;;;;;;;;;;10.40;70.20;98969.63;7370475;19;20359;-79
2023/05/17 07:52:52;;;;;;;;;;;;;;;10.32;69.58;98967.69;7373289;19;19947;-79
2023/05/17 07:55:20;;;;;;;;;;;;;;;10.24;70.05;98965.72;7377895;19;20361;-81
2023/05/17 07:57:47;;;;;;;;;;;;;;;10.35;69.85;98959.50;7379920;19;19970;-80
2023/05/17 08:00:15;;;;;;;;;;;;;;;10.05;68.95;98961.25;7379188;19;19974;-80
2023/05/17 08:02:41;;;;;;;;;;;;;;;10.06;71.26;98964.75;7364218;19;19915;-80
2023/05/17 08:05:08;;;;;;;;;;;;;;;9.94;69.50;98969.31;7379643;19;20345;-81
2023/05/17 08:07:35;;;;;;;;;;;;;;;10.00;70.67;98957.34;7370423;19;20318;-80
2023/05/17 08:10:02;;;;;;;;;;;;;;;10.14;70.88;98966.66;7371456;19;19917;-80
2023/05/17 08:12:29;;;;;;;;;;;;;;;10.21;71.66;98963.31;7369410;19;20355;-78
2023/05/17 08:14:56;;;;;;;;;;;;;;;10.36;69.96;98963.78;7377870;19;19914;-82
2023/05/17 08:17:23;;;;;;;;;;;;;;;10.63;69.52;98963.06;7366450;19;19925;-80
2023/05/17 08:19:49;;;;;;;;;;;;;;;10.57;68.42;98968.94;7371100;19;20340;-80
2023/05/17 08:22:16;;;;;;;;;;;;;;;10.67;70.29;98963.63;7371685;19;19923;-79
2023/05/17 08:24:44;;;;;;;;;;;;;;;10.76;68.87;98962.75;7367076;19;19918;-84
2023/05/17 08:27:10;;;;;;;;;;;;;;;10.67;68.26;98967.09;7377208;19;19926;-83
2023/05/17 08:29:37;;;;;;;;;;;;;;;10.79;67.84;98967.78;7363977;19;19943;-79
2023/05/17 08:32:05;;;;;;;;;;;;;;;10.84;67.99;98962.06;7377609;19;19923;-79
2023/05/17 08:34:32;;;;;;;;;;;;;;;10.93;68.58;98967.34;7378452;19;19911;-80
2023/05/17 08:36:59;;;;;;;;;;;;;;;11.06;68.29;98967.03;7376990;19;19940;-79
2023/05/17 08:39:26;;;;;;;;;;;;;;;11.13;68.35;98976.03;7378572;19;19965;-80
2023/05/17 08:41:55;;;;;;;;;;;;;;;11.23;67.82;98970.72;7375909;19;19917;-79
2023/05/17 08:44:22;;;;;;;;;;;;;;;11.30;67.17;98969.16;7378803;19;19998;-79
2023/05/17 08:46:52;;;;;;;;;;;;;;;11.34;67.37;98970.53;7380511;19;19939;-79
2023/05/17 08:49:21;;;;;;;;;;;;;;;11.64;66.59;98976.53;7384732;19;19915;-80
2023/05/17 08:51:48;;;;;;;;;;;;;;;11.68;66.67;98963.81;7381973;19;19930;-83
2023/05/17 08:54:15;;;;;;;;;;;;;;;11.72;64.82;98959.91;7385685;19;19955;-79
2023/05/17 08:56:42;;;;;;;;;;;;;;;11.65;63.86;98970.25;7379940;19;19951;-82
2023/05/17 08:59:12;;;;;;;;;;;;;;;11.91;65.98;98956.31;7382016;19;19978;-79
2023/05/17 09:01:39;;;;;;;;;;;;;;;11.98;63.76;98963.53;7380336;19;19980;-80
2023/05/17 09:04:06;;;;;;;;;;;;;;;11.88;62.78;98957.44;7383939;19;19955;-85
2023/05/17 09:06:33;;;;;;;;;;;;;;;11.92;63.72;98961.44;7385760;19;19951;-86
2023/05/17 09:09:00;;;;;;;;;;;;;;;11.86;63.70;98968.19;7380411;19;20659;-82
2023/05/17 09:11:28;;;;;;;;;;;;;;;11.99;62.67;98959.88;7382907;19;19952;-79
2023/05/17 09:13:58;;;;;;;;;;;;;;;11.84;62.42;98958.69;7383981;19;19974;-82
2023/05/17 09:16:29;;;;;;;;;;;;;;;11.85;60.90;98960.38;7383909;19;20318;-81
2023/05/17 09:18:56;;;;;;;;;;;;;;;11.91;62.70;98966.94;7384257;19;19930;-82
2023/05/17 09:21:23;;;;;;;;;;;;;;;11.97;61.08;98961.84;7381460;19;19940;-81
2023/05/17 09:23:50;;;;;;;;;;;;;;;12.28;65.15;98966.78;7383272;19;20325;-82
2023/05/17 09:26:57;;;;;;;;;;;;;;;12.38;63.53;98964.88;7380255;19;20455;-81
2023/05/17 09:29:24;;;;;;;;;;;;;;;12.44;63.55;98964.28;7378199;19;19922;-82
2023/05/17 09:31:50;;;;;;;;;;;;;;;12.49;58.07;98969.13;7384598;19;19949;-81
2023/05/17 09:34:18;;;;;;;;;;;;;;;12.62;58.47;98961.59;7389150;19;19927;-80
2023/05/17 09:36:45;;;;;;;;;;;;;;;12.54;57.39;98969.50;7382213;19;19925;-84
2023/05/17 09:39:14;;;;;;;;;;;;;;;12.70;58.90;98966.97;7387845;19;20383;-85
2023/05/17 09:41:44;;;;;;;;;;;;;;;12.94;59.14;98968.13;7381860;19;19911;-83
2023/05/17 09:44:15;;;;;;;;;;;;;;;13.00;58.90;98967.50;7386707;19;19948;-83
2023/05/17 09:46:46;;;;;;;;;;;;;;;13.17;58.81;98969.25;7382944;19;19911;-81
2023/05/17 09:49:14;;;;;;;;;;;;;;;13.23;59.70;98962.47;7381029;19;19922;-84
2023/05/17 09:51:42;;;;;;;;;;;;;;;13.52;57.37;98977.25;7386746;19;19947;-82
2023/05/17 09:54:09;;;;;;;;;;;;;;;13.41;54.03;98972.25;7380885;19;19946;-81
2023/05/17 09:56:36;;;;;;;;;;;;;;;13.31;55.62;98972.34;7378993;19;19935;-80
2023/05/17 09:59:09;;;;;;;;;;;;;;;13.19;55.81;98974.41;7377050;19;19918;-81
2023/05/17 10:01:36;;;;;;;;;;;;;;;13.04;56.54;98970.69;7378762;19;19943;-80
2023/05/17 10:04:02;;;;;;;;;;;;;;;12.81;55.72;98978.31;7382781;19;19921;-82
2023/05/17 10:06:30;;;;;;;;;;;;;;;12.86;54.71;98973.38;7382619;19;19936;-80
2023/05/17 10:09:14;;;;;;;;;;;;;;;12.97;55.79;98970.47;7381659;19;20348;-81
2023/05/17 10:11:45;;;;;;;;;;;;;;;13.03;56.18;98975.13;7377082;19;19923;-81
2023/05/17 10:14:21;;;;;;;;;;;;;;;13.05;55.57;98970.50;7379646;19;20715;-80
2023/05/17 10:16:49;;;;;;;;;;;;;;;13.03;54.24;98971.66;7381304;19;19989;-82
2023/05/17 10:19:18;;;;;;;;;;;;;;;13.00;53.91;98977.28;7385363;19;19926;-82
2023/05/17 10:21:49;;;;;;;;;;;;;;;12.74;53.95;98972.78;7381780;19;20991;-83
2023/05/17 10:24:17;;;;;;;;;;;;;;;12.76;54.58;98967.34;7387479;19;19924;-80
2023/05/17 10:26:44;;;;;;;;;;;;;;;12.82;54.53;98977.31;7382623;19;19919;-81
2023/05/17 10:29:11;;;;;;;;;;;;;;;12.86;54.81;98976.88;7385099;19;19922;-79
2023/05/17 10:31:37;;;;;;;;;;;;;;;12.94;55.82;98989.38;7381796;19;19918;-82
2023/05/17 10:34:05;;;;;;;;;;;;;;;13.08;57.03;98986.13;7381542;19;19923;-81
2023/05/17 10:36:32;;;;;;;;;;;;;;;13.09;54.57;98977.19;7382456;19;20239;-81
2023/05/17 10:38:59;;;;;;;;;;;;;;;13.13;56.39;98980.34;7378149;19;19933;-83
2023/05/17 10:41:27;;;;;;;;;;;;;;;13.18;56.37;98973.56;7387168;19;19926;-82
2023/05/17 10:43:53;;;;;;;;;;;;;;;13.22;53.54;98979.44;7377744;19;19925;-82
2023/05/17 10:46:23;;;;;;;;;;;;;;;13.29;54.02;98979.63;7380570;19;20576;-81
2023/05/17 10:48:50;;;;;;;;;;;;;;;13.47;58.27;98972.41;7370655;19;21059;-80
2023/05/17 10:51:24;;;;;;;;;;;;;;;13.44;55.35;98974.56;7377353;19;19929;-79
2023/05/17 10:54:04;;;;;;;;;;;;;;;13.56;57.75;98976.78;7378070;19;20335;-81
2023/05/17 10:56:31;;;;;;;;;;;;;;;13.51;54.76;98975.63;7382222;19;19943;-81
2023/05/17 10:59:17;;;;;;;;;;;;;;;13.64;56.99;98972.47;7382798;19;19923;-82
2023/05/17 11:01:48;;;;;;;;;;;;;;;13.61;54.56;98971.84;7373730;19;19990;-82
2023/05/17 11:04:23;;;;;;;;;;;;;;;13.67;57.15;98977.50;7380109;19;19953;-81
2023/05/17 11:06:53;;;;;;;;;;;;;;;13.49;52.53;98978.41;7374381;19;19915;-81
2023/05/17 11:09:21;;;;;;;;;;;;;;;13.21;55.11;98983.06;7382840;19;19914;-87
2023/05/17 11:12:09;;;;;;;;;;;;;;;12.95;54.50;98983.06;7382025;19;19996;-84
2023/05/17 11:14:42;;;;;;;;;;;;;;;13.08;55.81;98977.34;7383185;19;19925;-82
2023/05/17 11:17:13;;;;;;;;;;;;;;;13.22;60.09;98979.44;7382054;19;19918;-81
2023/05/17 11:19:59;;;;;;;;;;;;;;;13.07;57.12;98979.16;7375961;19;19926;-82
2023/05/17 11:22:27;;;;;;;;;;;;;;;13.12;57.06;98986.66;7379762;19;19930;-82
2023/05/17 11:24:57;;;;;;;;;;;;;;;12.87;55.80;98986.50;7385818;19;19921;-83
2023/05/17 11:27:27;;;;;;;;;;;;;;;12.93;56.21;98985.06;7385412;19;19929;-82
2023/05/17 11:29:59;;;;;;;;;;;;;;;12.89;58.42;98981.88;7380270;19;20824;-81
2023/05/17 11:32:26;;;;;;;;;;;;;;;12.93;56.72;98977.09;7385831;19;19948;-83
2023/05/17 11:34:53;;;;;;;;;;;;;;;13.00;56.99;98972.81;7374792;19;19922;-80
2023/05/17 11:37:26;;;;;;;;;;;;;;;13.03;59.49;98977.78;7383332;19;19976;-83
2023/05/17 11:40:03;;;;;;;;;;;;;;;13.09;56.35;98976.38;7372336;19;19934;-82
2023/05/17 11:42:30;;;;;;;;;;;;;;;13.06;56.53;98976.66;7381697;19;19918;-85
2023/05/17 11:45:04;;;;;;;;;;;;;;;13.30;58.26;98970.69;7379931;19;20279;-81
2023/05/17 11:47:31;;;;;;;;;;;;;;;13.47;56.53;98971.59;7386167;19;19997;-81
2023/05/17 11:50:02;;;;;;;;;;;;;;;13.75;59.53;98972.22;7371229;19;20321;-81
2023/05/17 11:52:29;;;;;;;;;;;;;;;13.98;57.01;98973.28;7385299;19;20270;-80
2023/05/17 11:54:56;;;;;;;;;;;;;;;13.85;54.50;98967.59;7382865;19;19990;-80
2023/05/17 11:57:30;;;;;;;;;;;;;;;13.92;53.45;98967.75;7382889;19;19951;-80
2023/05/17 12:00:00;;;;;;;;;;;;;;;14.05;53.13;98970.78;7382874;19;19932;-80
2023/05/17 12:02:37;;;;;;;;;;;;;;;14.17;55.35;98968.66;7381462;19;19982;-82
2023/05/17 12:05:04;;;;;;;;;;;;;;;14.39;54.54;98969.84;7382017;19;20333;-84
2023/05/17 12:07:32;;;;;;;;;;;;;;;14.33;52.80;98971.31;7378206;19;19915;-81
2023/05/17 12:09:59;;;;;;;;;;;;;;;14.15;53.54;98960.00;7368346;19;19921;-81
2023/05/17 12:12:26;;;;;;;;;;;;;;;14.18;53.89;98964.97;7377537;19;20341;-81
2023/05/17 12:14:53;;;;;;;;;;;;;;;14.10;53.36;98964.97;7375546;19;19918;-80
2023/05/17 12:17:22;;;;;;;;;;;;;;;13.90;52.95;98972.41;7379263;19;19925;-85
2023/05/17 12:19:52;;;;;;;;;;;;;;;13.61;52.81;98966.50;7373226;19;19914;-82
2023/05/17 12:22:20;;;;;;;;;;;;;;;13.55;54.83;98977.78;7380842;19;19919;-86
2023/05/17 12:24:46;;;;;;;;;;;;;;;13.35;54.67;98971.88;7387669;19;19923;-87
2023/05/17 12:27:13;;;;;;;;;;;;;;;13.00;55.15;98972.81;7386540;19;19918;-83
2023/05/17 12:29:41;;;;;;;;;;;;;;;13.04;56.35;98974.16;7384097;19;19918;-83
2023/05/17 12:32:08;;;;;;;;;;;;;;;13.18;59.47;98968.25;7391171;19;20262;-84
2023/05/17 12:34:35;;;;;;;;;;;;;;;13.13;57.52;98975.03;7389771;19;20049;-81
2023/05/17 12:37:01;;;;;;;;;;;;;;;13.21;58.34;98971.59;7392167;19;19921;-83
2023/05/17 12:39:31;;;;;;;;;;;;;;;13.07;56.71;98968.53;7393441;19;19919;-83
2023/05/17 12:41:58;;;;;;;;;;;;;;;13.00;55.97;98964.00;7396067;19;20004;-84
2023/05/17 12:44:28;;;;;;;;;;;;;;;13.00;58.32;98967.50;7393993;19;20276;-84
2023/05/17 12:46:56;;;;;;;;;;;;;;;12.96;57.53;98968.81;7392751;19;19939;-81
2023/05/17 12:49:23;;;;;;;;;;;;;;;12.95;57.20;98969.78;7390865;19;19982;-83
2023/05/17 12:51:50;;;;;;;;;;;;;;;12.87;57.54;98970.56;7386159;19;19922;-82
2023/05/17 12:54:19;;;;;;;;;;;;;;;13.02;57.81;98964.69;7388577;19;19979;-84
2023/05/17 12:56:46;;;;;;;;;;;;;;;13.24;57.81;98974.75;7387820;19;19930;-81
2023/05/17 12:59:15;;;;;;;;;;;;;;;13.27;56.29;98971.84;7389731;19;19927;-83